KTIW/TIW METAR and TAF weather

Enter ICAO airport designator
Station Type Date Time Source
KTIW METAR 2022/11/27 08:53 UTC NOAA

KTIW 270853Z AUTO 20021G39KT -RA BKN010 BKN020 OVC034 07/06 A2998 RMK AO2 PK WND 20045/0839 SLP153 P0000 60004 T00720056 56044 $


Station Type Date Time Source
KTIW Decoded METAR 2022/11/27 08:53 UTC NOAA

Tacoma, Tacoma Narrows Airport, WA, United States (KTIW) 47-16-03N 122-34-34W 96M
Nov 27, 2022 - 03:53 AM EST / 2022.11.27 0853 UTC
Wind: from the SSW (200 degrees) at 24 MPH (21 KT) gusting to 45 MPH (39 KT):0
Sky conditions: overcast
Weather: light rain
Precipitation last hour: A trace
Temperature: 45.0 F (7.2 C)
Dew Point: 42.1 F (5.6 C)
Relative Humidity: 89%
Pressure (altimeter): 29.98 in. Hg (1015 hPa)
Pressure tendency: 0.13 inches (4.4 hPa) lower than three hours ago
ob: KTIW 270853Z AUTO 20021G39KT -RA BKN010 BKN020 OVC034 07/06 A2998 RMK AO2 PK WND 20045/0839 SLP153 P0000 60004 T00720056 56044
cycle: 9

Station Type Date Time Source
KTIW TAF UTC NOAA

Error!

Example: see airport list